Time;durP1;ratioP1;P1;durP2;ratioP2;P2;SDS_P1;SDS_P2;PMS_P1;PMS_P2;Temp;Humidity;BMP_temperature;BMP_pressure;BME280_temperature;BME280_humidity;BME280_pressure;Samples;Min_cycle;Max_cycle;Signal;HPM_P1;HPM_P2
2021/01/03 00:02:08;;;;;;;45.78;40.97;;;;;;;;;;5074772;28;20199;-86
2021/01/03 00:04:36;;;;;;;49.40;44.17;;;;;;;;;;5074513;28;20709;-86
2021/01/03 00:07:03;;;;;;;47.72;42.47;;;;;;;;;;5074583;28;20247;-86
2021/01/03 00:09:30;;;;;;;50.47;45.20;;;;;;;;;;5074320;28;20207;-86
2021/01/03 00:11:56;;;;;;;46.35;41.45;;;;;;;;;;5074554;28;20209;-86
2021/01/03 00:14:23;;;;;;;46.08;41.17;;;;;;;;;;5074704;28;20184;-86
2021/01/03 00:16:53;;;;;;;48.65;43.50;;;;;;;;;;5057017;28;20238;-86
2021/01/03 00:19:21;;;;;;;49.55;44.08;;;;;;;;;;5074380;28;20193;-86
2021/01/03 00:21:48;;;;;;;46.22;41.25;;;;;;;;;;5074354;28;20644;-86
2021/01/03 00:24:15;;;;;;;46.42;41.50;;;;;;;;;;5074485;28;20188;-85
2021/01/03 00:26:42;;;;;;;48.30;42.65;;;;;;;;;;5074404;28;20188;-85
2021/01/03 00:29:09;;;;;;;45.05;40.22;;;;;;;;;;5074525;28;20681;-86
2021/01/03 00:31:37;;;;;;;45.35;40.63;;;;;;;;;;5074413;28;20186;-86
2021/01/03 00:34:06;;;;;;;51.40;41.70;;;;;;;;;;5073286;28;20205;-86
2021/01/03 00:36:33;;;;;;;51.58;41.25;;;;;;;;;;5074041;28;20223;-85
2021/01/03 00:39:00;;;;;;;44.40;39.78;;;;;;;;;;5074507;28;20192;-85
2021/01/03 00:41:26;;;;;;;45.67;40.67;;;;;;;;;;5074676;28;20231;-85
2021/01/03 00:43:53;;;;;;;44.83;40.20;;;;;;;;;;5074588;28;20184;-86
2021/01/03 00:46:20;;;;;;;46.97;42.13;;;;;;;;;;5074130;28;20232;-85
2021/01/03 00:48:47;;;;;;;45.53;40.75;;;;;;;;;;5074097;28;20676;-85
2021/01/03 00:51:15;;;;;;;43.05;38.47;;;;;;;;;;5073984;28;20536;-85
2021/01/03 00:53:42;;;;;;;48.53;39.90;;;;;;;;;;5073961;28;20189;-85
2021/01/03 00:56:09;;;;;;;43.38;39.13;;;;;;;;;;5074323;28;20199;-86
2021/01/03 00:58:36;;;;;;;45.67;40.97;;;;;;;;;;5074340;28;20246;-85
2021/01/03 01:01:02;;;;;;;40.55;36.70;;;;;;;;;;5074192;28;20243;-86
2021/01/03 01:03:30;;;;;;;37.83;34.33;;;;;;;;;;5073190;28;20337;-85
2021/01/03 01:05:57;;;;;;;33.65;30.75;;;;;;;;;;5072963;28;20231;-86
2021/01/03 01:08:25;;;;;;;32.85;29.95;;;;;;;;;;5073388;28;20204;-85
2021/01/03 01:10:52;;;;;;;34.33;31.13;;;;;;;;;;5073903;28;20189;-85
2021/01/03 01:13:19;;;;;;;32.63;29.80;;;;;;;;;;5074110;28;20722;-85
2021/01/03 01:15:46;;;;;;;34.90;31.70;;;;;;;;;;5073858;28;20193;-85
2021/01/03 01:18:13;;;;;;;34.15;31.20;;;;;;;;;;5074011;28;20555;-85
2021/01/03 01:20:40;;;;;;;30.05;27.58;;;;;;;;;;5074085;28;20705;-85
2021/01/03 01:23:07;;;;;;;30.40;28.00;;;;;;;;;;5078026;28;20192;-86
2021/01/03 01:25:35;;;;;;;29.88;27.58;;;;;;;;;;5077658;28;20610;-85
2021/01/03 01:28:02;;;;;;;31.17;28.70;;;;;;;;;;5078135;28;20218;-86
2021/01/03 01:30:30;;;;;;;31.15;28.55;;;;;;;;;;5077841;28;20192;-85
2021/01/03 01:32:57;;;;;;;30.13;27.77;;;;;;;;;;5077763;28;20188;-85
2021/01/03 01:35:25;;;;;;;30.95;28.48;;;;;;;;;;5077400;28;20208;-86
2021/01/03 01:37:52;;;;;;;30.90;28.25;;;;;;;;;;5077651;28;20196;-85
2021/01/03 01:40:21;;;;;;;30.83;28.23;;;;;;;;;;5077466;28;20192;-85
2021/01/03 01:42:49;;;;;;;32.42;29.77;;;;;;;;;;5077122;28;20201;-85
2021/01/03 01:45:18;;;;;;;31.48;28.85;;;;;;;;;;5077279;28;20231;-85
2021/01/03 01:47:46;;;;;;;33.42;30.33;;;;;;;;;;5076411;28;20205;-85
2021/01/03 01:50:19;;;;;;;32.67;29.98;;;;;;;;;;5077401;28;20525;-85
2021/01/03 01:52:47;;;;;;;32.95;30.15;;;;;;;;;;5077409;28;20195;-85
2021/01/03 01:55:17;;;;;;;32.03;29.00;;;;;;;;;;5077439;28;20207;-85
2021/01/03 01:57:45;;;;;;;32.17;29.60;;;;;;;;;;5076512;28;20196;-85
2021/01/03 02:00:15;;;;;;;32.92;30.10;;;;;;;;;;5076930;28;20224;-86
2021/01/03 02:02:46;;;;;;;32.45;29.65;;;;;;;;;;5076861;28;20199;-85
2021/01/03 02:05:15;;;;;;;32.00;29.15;;;;;;;;;;5075902;28;20628;-85
2021/01/03 02:07:47;;;;;;;32.67;29.80;;;;;;;;;;5076864;28;20188;-86
2021/01/03 02:10:17;;;;;;;32.58;30.08;;;;;;;;;;5077068;28;20219;-85
2021/01/03 02:12:46;;;;;;;32.47;29.70;;;;;;;;;;5076348;28;20211;-86
2021/01/03 02:15:16;;;;;;;31.90;29.23;;;;;;;;;;5077036;28;20194;-86
2021/01/03 02:17:44;;;;;;;31.38;28.95;;;;;;;;;;5076850;28;20602;-86
2021/01/03 02:20:12;;;;;;;30.13;27.88;;;;;;;;;;5076548;28;20224;-85
2021/01/03 02:22:42;;;;;;;30.73;28.23;;;;;;;;;;5076178;28;20232;-86
2021/01/03 02:25:12;;;;;;;29.52;27.23;;;;;;;;;;5076390;28;20304;-86
2021/01/03 02:27:43;;;;;;;29.35;27.05;;;;;;;;;;5076808;28;20238;-85
2021/01/03 02:30:11;;;;;;;29.20;27.00;;;;;;;;;;5076463;28;20655;-86
2021/01/03 02:32:38;;;;;;;29.67;27.38;;;;;;;;;;5076053;28;20192;-85
2021/01/03 02:35:07;;;;;;;29.83;27.60;;;;;;;;;;5075560;28;20283;-86
2021/01/03 02:37:36;;;;;;;29.02;26.88;;;;;;;;;;5076443;28;20590;-85
2021/01/03 02:40:06;;;;;;;29.80;27.38;;;;;;;;;;5076589;28;20189;-85
2021/01/03 02:42:35;;;;;;;30.10;27.85;;;;;;;;;;5075301;28;20218;-86
2021/01/03 02:45:03;;;;;;;29.38;27.17;;;;;;;;;;5076282;28;20268;-86
2021/01/03 02:47:31;;;;;;;27.45;25.40;;;;;;;;;;5076319;28;20188;-85
2021/01/03 02:49:58;;;;;;;26.67;24.88;;;;;;;;;;5076132;28;20193;-86
2021/01/03 02:52:28;;;;;;;27.98;25.88;;;;;;;;;;5075874;28;20188;-86
2021/01/03 02:54:55;;;;;;;27.92;25.98;;;;;;;;;;5075839;28;20223;-85
2021/01/03 02:57:21;;;;;;;27.58;25.60;;;;;;;;;;5076106;28;20185;-85
2021/01/03 02:59:49;;;;;;;27.40;25.40;;;;;;;;;;5075953;28;20204;-85
2021/01/03 03:02:17;;;;;;;26.10;24.40;;;;;;;;;;5075739;28;20192;-86
2021/01/03 03:04:44;;;;;;;26.10;24.40;;;;;;;;;;5074779;28;20263;-85
2021/01/03 03:07:11;;;;;;;25.10;23.40;;;;;;;;;;5075047;28;20203;-85
2021/01/03 03:09:38;;;;;;;25.55;23.88;;;;;;;;;;5076083;28;20196;-85
2021/01/03 03:12:05;;;;;;;25.25;23.55;;;;;;;;;;5075772;28;20595;-85
2021/01/03 03:14:32;;;;;;;25.42;23.70;;;;;;;;;;5075326;28;20203;-85
2021/01/03 03:17:01;;;;;;;25.63;23.92;;;;;;;;;;5075425;28;20193;-85
2021/01/03 03:19:28;;;;;;;24.92;23.20;;;;;;;;;;5075612;28;20553;-86
2021/01/03 03:21:55;;;;;;;24.45;22.95;;;;;;;;;;5075322;28;20231;-85
2021/01/03 03:24:22;;;;;;;26.10;24.40;;;;;;;;;;5075616;28;20578;-86
2021/01/03 03:26:53;;;;;;;25.05;23.52;;;;;;;;;;5075499;28;20219;-85
2021/01/03 03:29:20;;;;;;;25.85;24.15;;;;;;;;;;5075534;28;20221;-85
2021/01/03 03:31:47;;;;;;;25.42;23.65;;;;;;;;;;5074984;28;20210;-85
2021/01/03 03:34:16;;;;;;;25.08;23.38;;;;;;;;;;5075384;28;20185;-85
2021/01/03 03:36:43;;;;;;;26.08;24.27;;;;;;;;;;5075503;28;20196;-86
2021/01/03 03:39:10;;;;;;;25.30;23.55;;;;;;;;;;5074230;28;20217;-86
2021/01/03 03:41:37;;;;;;;26.15;24.20;;;;;;;;;;5075331;28;20199;-86
2021/01/03 03:44:05;;;;;;;25.58;23.85;;;;;;;;;;5074005;28;20212;-85
2021/01/03 03:46:32;;;;;;;26.77;24.92;;;;;;;;;;5074917;28;20231;-85
2021/01/03 03:48:58;;;;;;;26.52;24.63;;;;;;;;;;5075071;28;20284;-85
2021/01/03 03:51:26;;;;;;;27.55;25.65;;;;;;;;;;5074785;28;20239;-86
2021/01/03 03:53:54;;;;;;;27.60;25.70;;;;;;;;;;5074830;28;20188;-85
2021/01/03 03:56:21;;;;;;;26.48;24.70;;;;;;;;;;5073775;28;20259;-86
2021/01/03 03:58:48;;;;;;;28.65;26.65;;;;;;;;;;5074090;28;20211;-85
2021/01/03 04:01:14;;;;;;;26.63;24.73;;;;;;;;;;5074943;28;20203;-85
2021/01/03 04:03:41;;;;;;;26.20;24.33;;;;;;;;;;5074871;28;20189;-85
2021/01/03 04:06:08;;;;;;;28.20;26.25;;;;;;;;;;5074271;28;20258;-86
2021/01/03 04:08:38;;;;;;;26.38;24.50;;;;;;;;;;5074886;28;20196;-85
2021/01/03 04:11:05;;;;;;;26.67;24.88;;;;;;;;;;5074824;28;20270;-85
2021/01/03 04:13:32;;;;;;;28.92;26.63;;;;;;;;;;5074587;28;20188;-86
2021/01/03 04:15:59;;;;;;;27.30;25.40;;;;;;;;;;5074807;28;20343;-85
2021/01/03 04:18:25;;;;;;;28.13;26.02;;;;;;;;;;5074771;28;20187;-86
2021/01/03 04:20:52;;;;;;;27.05;25.15;;;;;;;;;;5074228;28;20184;-86
2021/01/03 04:23:19;;;;;;;27.70;25.80;;;;;;;;;;5074691;28;20572;-86
2021/01/03 04:25:47;;;;;;;27.17;25.27;;;;;;;;;;5074643;28;20578;-86
2021/01/03 04:28:14;;;;;;;29.40;27.23;;;;;;;;;;5074483;28;20184;-86
2021/01/03 04:30:41;;;;;;;27.67;25.67;;;;;;;;;;5074389;28;20193;-85
2021/01/03 04:33:08;;;;;;;26.75;25.00;;;;;;;;;;5074469;28;20192;-85
2021/01/03 04:35:35;;;;;;;27.13;24.70;;;;;;;;;;5074227;28;20203;-86
2021/01/03 04:38:02;;;;;;;26.35;24.55;;;;;;;;;;5074496;28;20214;-85
2021/01/03 04:40:30;;;;;;;26.50;24.73;;;;;;;;;;5073416;28;20606;-85
2021/01/03 04:42:59;;;;;;;26.67;24.67;;;;;;;;;;5074474;28;20237;-85
2021/01/03 04:45:28;;;;;;;26.52;24.83;;;;;;;;;;5074234;28;20232;-85
2021/01/03 04:47:57;;;;;;;26.17;24.48;;;;;;;;;;5074032;28;20668;-87
2021/01/03 04:50:40;;;;;;;25.35;23.75;;;;;;;;;;5074304;28;20227;-86
2021/01/03 04:53:23;;;;;;;25.50;23.73;;;;;;;;;;5074405;28;20187;-85
2021/01/03 04:55:52;;;;;;;27.38;25.25;;;;;;;;;;5076434;28;20246;-85
2021/01/03 04:58:26;;;;;;;26.15;24.25;;;;;;;;;;5077988;28;20232;-86
2021/01/03 05:01:03;;;;;;;25.70;23.90;;;;;;;;;;5077923;28;20196;-85
2021/01/03 05:03:37;;;;;;;25.90;24.15;;;;;;;;;;5077440;28;20199;-85
2021/01/03 05:06:06;;;;;;;26.08;24.10;;;;;;;;;;5078151;28;20257;-85
2021/01/03 05:08:36;;;;;;;27.45;25.50;;;;;;;;;;5078287;28;20184;-85
2021/01/03 05:11:04;;;;;;;27.55;25.63;;;;;;;;;;5078255;28;20218;-85
2021/01/03 05:13:38;;;;;;;26.27;24.38;;;;;;;;;;5077921;28;20188;-85
2021/01/03 05:16:05;;;;;;;27.35;25.35;;;;;;;;;;5078120;28;20220;-85
2021/01/03 05:18:32;;;;;;;27.60;25.48;;;;;;;;;;5077915;28;20294;-85
2021/01/03 05:21:06;;;;;;;27.02;25.17;;;;;;;;;;5077202;28;20199;-86
2021/01/03 05:23:33;;;;;;;26.25;24.45;;;;;;;;;;5077767;28;20218;-85
2021/01/03 05:26:02;;;;;;;27.65;25.67;;;;;;;;;;5076190;28;20253;-85
2021/01/03 05:28:30;;;;;;;26.38;24.58;;;;;;;;;;5076598;28;20200;-85
2021/01/03 05:31:10;;;;;;;25.88;24.08;;;;;;;;;;5077755;28;20188;-85
2021/01/03 05:33:37;;;;;;;26.30;24.30;;;;;;;;;;5077821;28;20217;-85
2021/01/03 05:36:05;;;;;;;25.58;23.85;;;;;;;;;;5077523;28;20638;-85
2021/01/03 05:38:37;;;;;;;25.95;24.00;;;;;;;;;;5077697;28;20543;-85
2021/01/03 05:41:13;;;;;;;26.30;24.50;;;;;;;;;;5076346;28;20203;-85
2021/01/03 05:43:40;;;;;;;25.65;23.85;;;;;;;;;;5077568;28;20195;-85
2021/01/03 05:46:12;;;;;;;25.45;23.77;;;;;;;;;;5075989;28;20239;-85
2021/01/03 05:48:41;;;;;;;26.85;25.05;;;;;;;;;;5077556;28;20200;-86
2021/01/03 05:51:13;;;;;;;26.58;24.80;;;;;;;;;;5076888;28;20204;-85
2021/01/03 05:53:40;;;;;;;27.05;24.25;;;;;;;;;;5076990;28;20243;-85
2021/01/03 05:56:21;;;;;;;27.38;25.42;;;;;;;;;;5077315;28;20562;-85
2021/01/03 05:58:54;;;;;;;26.02;24.30;;;;;;;;;;5077350;28;20573;-85
2021/01/03 06:01:22;;;;;;;26.58;24.88;;;;;;;;;;5076423;28;20597;-85
2021/01/03 06:04:00;;;;;;;26.85;25.05;;;;;;;;;;5076108;28;20210;-85
2021/01/03 06:06:33;;;;;;;25.38;23.77;;;;;;;;;;5075493;28;20228;-85
2021/01/03 06:09:00;;;;;;;25.25;23.55;;;;;;;;;;5077050;28;20195;-85
2021/01/03 06:11:28;;;;;;;26.23;24.15;;;;;;;;;;5075687;28;20200;-85
2021/01/03 06:13:57;;;;;;;25.55;23.95;;;;;;;;;;5076951;28;20622;-86
2021/01/03 06:16:26;;;;;;;24.90;23.20;;;;;;;;;;5076631;28;20197;-86
2021/01/03 06:18:59;;;;;;;25.13;23.52;;;;;;;;;;5076490;28;20630;-85
2021/01/03 06:21:28;;;;;;;26.58;24.88;;;;;;;;;;5076590;28;20236;-85
2021/01/03 06:24:13;;;;;;;26.42;24.73;;;;;;;;;;5076554;28;20200;-85
2021/01/03 06:26:42;;;;;;;26.55;24.55;;;;;;;;;;5076693;28;20212;-91
2021/01/03 06:29:26;;;;;;;25.45;23.75;;;;;;;;;;5076767;28;20191;-85
2021/01/03 06:32:20;;;;;;;25.30;23.70;;;;;;;;;;5076743;28;20185;-85
2021/01/03 06:34:52;;;;;;;25.20;23.40;;;;;;;;;;5076617;28;20245;-85
2021/01/03 06:37:23;;;;;;;24.50;22.95;;;;;;;;;;5076516;28;20195;-86
2021/01/03 06:39:55;;;;;;;25.67;24.05;;;;;;;;;;5076256;28;20192;-85
2021/01/03 06:42:31;;;;;;;25.35;23.75;;;;;;;;;;5076336;28;20639;-86
2021/01/03 06:45:32;;;;;;;26.15;24.45;;;;;;;;;;5076089;28;20231;-86
2021/01/03 06:48:26;;;;;;;24.60;23.10;;;;;;;;;;5076303;28;20193;-86
2021/01/03 06:51:02;;;;;;;25.60;24.00;;;;;;;;;;5076217;28;20255;-86
2021/01/03 06:54:02;;;;;;;26.30;24.58;;;;;;;;;;5076361;28;20192;-85
2021/01/03 06:56:34;;;;;;;25.08;23.40;;;;;;;;;;5076308;28;20204;-86
2021/01/03 06:59:11;;;;;;;26.13;24.48;;;;;;;;;;5076190;28;20190;-86
2021/01/03 07:01:39;;;;;;;24.75;23.25;;;;;;;;;;5075498;28;20208;-85
2021/01/03 07:04:10;;;;;;;25.40;23.80;;;;;;;;;;5075929;28;20656;-85
2021/01/03 07:06:39;;;;;;;26.55;24.85;;;;;;;;;;5074785;28;20235;-86
2021/01/03 07:09:07;;;;;;;25.48;23.77;;;;;;;;;;5075590;28;20188;-86
2021/01/03 07:11:39;;;;;;;26.38;24.58;;;;;;;;;;5075942;28;20191;-86
2021/01/03 07:14:06;;;;;;;25.25;23.45;;;;;;;;;;5075769;28;20188;-85
2021/01/03 07:16:48;;;;;;;27.63;25.77;;;;;;;;;;5076014;28;20238;-85
2021/01/03 07:19:18;;;;;;;27.00;25.25;;;;;;;;;;5075422;28;20547;-85
2021/01/03 07:21:46;;;;;;;26.30;24.60;;;;;;;;;;5075089;28;20232;-85
2021/01/03 07:24:32;;;;;;;26.77;24.77;;;;;;;;;;5074367;28;20702;-86
2021/01/03 07:27:33;;;;;;;25.80;24.00;;;;;;;;;;5075613;28;20262;-85
2021/01/03 07:30:17;;;;;;;26.58;24.67;;;;;;;;;;5074631;28;20286;-83
2021/01/03 07:32:48;;;;;;;25.67;23.88;;;;;;;;;;5074318;28;20210;-86
2021/01/03 07:35:30;;;;;;;26.52;24.73;;;;;;;;;;5075452;28;20199;-85
2021/01/03 07:38:11;;;;;;;25.23;23.50;;;;;;;;;;5075410;28;20192;-85
2021/01/03 07:40:49;;;;;;;25.00;23.13;;;;;;;;;;5075153;28;20589;-86
2021/01/03 07:43:16;;;;;;;25.38;23.67;;;;;;;;;;5075490;28;20191;-86
2021/01/03 07:45:45;;;;;;;26.63;24.73;;;;;;;;;;5074806;28;20235;-85
2021/01/03 07:48:31;;;;;;;25.92;24.02;;;;;;;;;;5075588;28;20553;-86
2021/01/03 07:50:58;;;;;;;24.85;23.13;;;;;;;;;;5075047;28;20184;-86
2021/01/03 07:53:26;;;;;;;25.73;24.05;;;;;;;;;;5074900;28;20190;-86
2021/01/03 07:55:55;;;;;;;26.80;25.00;;;;;;;;;;5074306;28;20261;-86
2021/01/03 07:58:23;;;;;;;25.08;23.55;;;;;;;;;;5075122;28;20193;-86
2021/01/03 08:00:53;;;;;;;26.67;24.85;;;;;;;;;;5074647;28;20204;-86
2021/01/03 08:03:21;;;;;;;24.67;23.17;;;;;;;;;;5074620;28;20279;-80
2021/01/03 08:05:48;;;;;;;25.42;23.83;;;;;;;;;;5074034;28;20220;-80
2021/01/03 08:08:17;;;;;;;24.50;23.00;;;;;;;;;;5074283;28;20188;-80
2021/01/03 08:10:45;;;;;;;27.35;25.55;;;;;;;;;;5074542;28;20223;-83
2021/01/03 08:13:19;;;;;;;26.35;24.65;;;;;;;;;;5074595;28;20188;-84
2021/01/03 08:15:46;;;;;;;25.70;23.92;;;;;;;;;;5074746;28;20195;-84
2021/01/03 08:18:14;;;;;;;26.63;24.83;;;;;;;;;;5074438;28;20192;-84
2021/01/03 08:20:41;;;;;;;25.40;23.80;;;;;;;;;;5074438;28;20207;-85
2021/01/03 08:23:09;;;;;;;26.10;24.20;;;;;;;;;;5074346;28;20688;-85
2021/01/03 08:25:36;;;;;;;25.05;23.15;;;;;;;;;;5074215;28;20211;-84
2021/01/03 08:28:07;;;;;;;25.38;23.77;;;;;;;;;;5072594;28;20207;-79
2021/01/03 08:30:36;;;;;;;25.30;23.60;;;;;;;;;;5073456;28;20195;-80
2021/01/03 08:33:07;;;;;;;25.00;23.20;;;;;;;;;;5074047;28;20227;-81
2021/01/03 08:35:34;;;;;;;25.33;23.73;;;;;;;;;;5074045;28;20196;-83
2021/01/03 08:38:01;;;;;;;24.52;23.00;;;;;;;;;;5073881;28;20199;-80
2021/01/03 08:40:28;;;;;;;25.17;23.48;;;;;;;;;;5073879;28;20212;-79
2021/01/03 08:42:58;;;;;;;24.88;23.25;;;;;;;;;;5074582;28;20225;-79
2021/01/03 08:45:29;;;;;;;27.02;24.80;;;;;;;;;;5072577;28;20670;-80
2021/01/03 08:48:00;;;;;;;25.15;23.45;;;;;;;;;;5073925;28;20192;-79
2021/01/03 08:50:29;;;;;;;24.48;22.88;;;;;;;;;;5073613;28;20187;-80
2021/01/03 08:53:00;;;;;;;23.30;21.80;;;;;;;;;;5073673;28;20188;-80
2021/01/03 08:55:28;;;;;;;23.30;21.77;;;;;;;;;;5073702;28;20203;-80
2021/01/03 08:57:56;;;;;;;24.80;23.20;;;;;;;;;;5073525;28;20210;-80
2021/01/03 09:00:25;;;;;;;24.40;22.90;;;;;;;;;;5073560;28;20201;-80
2021/01/03 09:02:54;;;;;;;25.13;23.40;;;;;;;;;;5073701;28;20556;-80
2021/01/03 09:05:23;;;;;;;24.25;22.65;;;;;;;;;;5073483;28;20278;-80
2021/01/03 09:07:51;;;;;;;25.60;23.90;;;;;;;;;;5073395;28;20210;-80
2021/01/03 09:10:20;;;;;;;25.10;23.40;;;;;;;;;;5073347;28;20789;-80
2021/01/03 09:12:48;;;;;;;25.65;24.05;;;;;;;;;;5073355;28;20637;-80
2021/01/03 09:15:17;;;;;;;25.35;23.65;;;;;;;;;;5073270;28;20237;-80
2021/01/03 09:17:44;;;;;;;24.88;23.17;;;;;;;;;;5073194;28;20207;-80
2021/01/03 09:20:15;;;;;;;26.05;24.25;;;;;;;;;;5072784;28;20194;-80
2021/01/03 09:22:45;;;;;;;25.85;24.15;;;;;;;;;;5082126;28;20224;-82
2021/01/03 09:25:17;;;;;;;26.40;24.60;;;;;;;;;;5081441;28;20193;-82
2021/01/03 09:27:44;;;;;;;26.35;24.45;;;;;;;;;;5072928;28;20199;-82
2021/01/03 09:30:13;;;;;;;25.48;23.77;;;;;;;;;;5072965;28;20241;-85
2021/01/03 09:32:40;;;;;;;26.67;24.75;;;;;;;;;;5077083;28;20251;-83
2021/01/03 09:35:10;;;;;;;26.20;24.30;;;;;;;;;;5079806;28;20568;-83
2021/01/03 09:37:38;;;;;;;26.27;24.52;;;;;;;;;;5081133;28;20185;-82
2021/01/03 09:40:23;;;;;;;26.38;24.58;;;;;;;;;;5080797;28;20235;-82
2021/01/03 09:42:54;;;;;;;27.23;25.25;;;;;;;;;;5074678;28;20656;-82
2021/01/03 09:45:30;;;;;;;26.70;24.80;;;;;;;;;;5076227;28;20620;-83
2021/01/03 09:47:58;;;;;;;26.92;24.92;;;;;;;;;;5076310;28;20188;-86
2021/01/03 09:50:28;;;;;;;27.98;25.88;;;;;;;;;;5082006;28;20186;-81
2021/01/03 09:52:58;;;;;;;27.65;25.60;;;;;;;;;;5076454;28;20242;-82
2021/01/03 09:55:28;;;;;;;27.52;25.42;;;;;;;;;;5076653;28;20565;-79
2021/01/03 09:58:02;;;;;;;28.58;26.42;;;;;;;;;;5076780;28;20192;-78
2021/01/03 10:00:44;;;;;;;28.90;26.70;;;;;;;;;;5076389;28;20277;-78
2021/01/03 10:03:15;;;;;;;29.10;27.10;;;;;;;;;;5076620;28;20212;-78
2021/01/03 10:05:42;;;;;;;28.23;26.15;;;;;;;;;;5076431;28;20208;-78
2021/01/03 10:08:11;;;;;;;28.23;26.00;;;;;;;;;;5076013;28;20348;-78
2021/01/03 10:10:42;;;;;;;28.38;26.17;;;;;;;;;;5075950;28;20193;-78
2021/01/03 10:13:10;;;;;;;27.13;25.13;;;;;;;;;;5076295;28;20253;-79
2021/01/03 10:15:37;;;;;;;28.60;26.35;;;;;;;;;;5075959;28;20568;-79
2021/01/03 10:18:06;;;;;;;26.08;24.17;;;;;;;;;;5075906;28;20591;-78
2021/01/03 10:20:44;;;;;;;27.75;25.60;;;;;;;;;;5075965;28;20653;-79
2021/01/03 10:23:13;;;;;;;28.63;26.38;;;;;;;;;;5075804;28;20232;-78
2021/01/03 10:25:40;;;;;;;31.33;28.90;;;;;;;;;;5075882;28;20256;-78
2021/01/03 10:28:10;;;;;;;30.30;28.00;;;;;;;;;;5076125;28;20191;-78
2021/01/03 10:30:37;;;;;;;30.00;27.65;;;;;;;;;;5075249;28;20529;-92
2021/01/03 10:33:04;;;;;;;30.48;28.17;;;;;;;;;;5076581;28;20188;-83
2021/01/03 10:35:31;;;;;;;29.50;27.10;;;;;;;;;;5075801;28;20613;-81
2021/01/03 10:37:58;;;;;;;31.83;29.23;;;;;;;;;;5075681;28;20199;-81
2021/01/03 10:40:25;;;;;;;30.73;28.33;;;;;;;;;;5076213;28;20186;-82
2021/01/03 10:42:52;;;;;;;32.22;29.63;;;;;;;;;;5075897;28;20250;-81
2021/01/03 10:45:21;;;;;;;32.05;29.75;;;;;;;;;;5074267;28;20220;-82
2021/01/03 10:47:48;;;;;;;33.63;30.83;;;;;;;;;;5075948;28;20195;-83
2021/01/03 10:50:16;;;;;;;31.83;29.42;;;;;;;;;;5074698;28;20652;-81
2021/01/03 10:52:42;;;;;;;30.73;28.15;;;;;;;;;;5074895;28;20187;-82
2021/01/03 10:55:10;;;;;;;31.45;28.88;;;;;;;;;;5075352;28;20234;-78
2021/01/03 10:57:37;;;;;;;29.40;27.15;;;;;;;;;;5075419;28;20254;-79
2021/01/03 11:00:06;;;;;;;32.08;29.15;;;;;;;;;;5074108;28;20193;-78
2021/01/03 11:02:33;;;;;;;31.92;29.15;;;;;;;;;;5075019;28;20286;-78
2021/01/03 11:05:00;;;;;;;32.58;29.95;;;;;;;;;;5074840;28;20188;-79
2021/01/03 11:07:27;;;;;;;32.97;30.05;;;;;;;;;;5074816;28;20216;-79
2021/01/03 11:09:54;;;;;;;31.27;28.58;;;;;;;;;;5074781;28;20191;-79
2021/01/03 11:12:21;;;;;;;32.50;29.77;;;;;;;;;;5075019;28;20222;-79
2021/01/03 11:14:48;;;;;;;30.73;27.98;;;;;;;;;;5074702;28;20197;-78
2021/01/03 11:17:15;;;;;;;30.98;28.23;;;;;;;;;;5074925;28;20222;-79
2021/01/03 11:19:44;;;;;;;33.38;30.65;;;;;;;;;;5075095;28;20272;-80
2021/01/03 11:22:12;;;;;;;31.70;28.90;;;;;;;;;;5073750;28;20236;-80
2021/01/03 11:24:39;;;;;;;31.80;28.83;;;;;;;;;;5075079;28;20207;-80
2021/01/03 11:27:08;;;;;;;31.95;29.15;;;;;;;;;;5074548;28;20220;-79
2021/01/03 11:29:35;;;;;;;32.10;29.10;;;;;;;;;;5074291;28;20193;-81
2021/01/03 11:32:03;;;;;;;31.50;28.80;;;;;;;;;;5075384;28;20214;-80
2021/01/03 11:34:31;;;;;;;31.30;28.63;;;;;;;;;;5073113;28;20671;-80
2021/01/03 11:36:59;;;;;;;30.77;28.08;;;;;;;;;;5074865;28;20190;-80
2021/01/03 11:39:28;;;;;;;30.38;27.77;;;;;;;;;;5074302;28;20192;-80
2021/01/03 11:41:59;;;;;;;30.67;28.23;;;;;;;;;;5074021;28;20190;-79
2021/01/03 11:44:30;;;;;;;31.73;28.80;;;;;;;;;;5073346;28;20189;-79
2021/01/03 11:47:02;;;;;;;31.58;28.92;;;;;;;;;;5072999;28;20219;-79
2021/01/03 11:49:32;;;;;;;30.45;27.95;;;;;;;;;;5073940;28;20192;-79
2021/01/03 11:52:00;;;;;;;30.58;28.00;;;;;;;;;;5074430;28;20203;-79
2021/01/03 11:54:26;;;;;;;29.95;27.50;;;;;;;;;;5073998;28;20598;-79
2021/01/03 11:56:56;;;;;;;31.10;28.15;;;;;;;;;;5073963;28;20187;-79
2021/01/03 11:59:23;;;;;;;29.88;27.40;;;;;;;;;;5072638;28;20211;-79
2021/01/03 12:01:56;;;;;;;31.45;28.85;;;;;;;;;;5074753;28;20524;-79
2021/01/03 12:04:22;;;;;;;30.80;28.30;;;;;;;;;;5073915;28;20230;-79
2021/01/03 12:06:54;;;;;;;31.35;28.67;;;;;;;;;;5073721;28;20242;-79
2021/01/03 12:09:22;;;;;;;30.20;27.77;;;;;;;;;;5073907;28;20663;-79
2021/01/03 12:11:51;;;;;;;29.23;26.83;;;;;;;;;;5073832;28;20677;-79
2021/01/03 12:14:18;;;;;;;29.30;26.70;;;;;;;;;;5073557;28;20604;-79
2021/01/03 12:16:45;;;;;;;29.83;27.42;;;;;;;;;;5074004;28;20261;-79
2021/01/03 12:19:13;;;;;;;30.60;27.90;;;;;;;;;;5073471;28;20192;-79
2021/01/03 12:21:39;;;;;;;29.52;26.92;;;;;;;;;;5073766;28;20234;-79
2021/01/03 12:24:07;;;;;;;30.38;27.98;;;;;;;;;;5074190;28;20242;-79
2021/01/03 12:26:36;;;;;;;29.10;26.58;;;;;;;;;;5073609;28;20291;-79
2021/01/03 12:29:03;;;;;;;31.15;28.45;;;;;;;;;;5073866;28;20192;-78
2021/01/03 12:31:34;;;;;;;29.83;27.35;;;;;;;;;;5073586;28;20184;-79
2021/01/03 12:34:01;;;;;;;30.17;27.77;;;;;;;;;;5073784;28;20227;-79
2021/01/03 12:36:27;;;;;;;29.67;27.23;;;;;;;;;;5073708;28;20215;-81
2021/01/03 12:38:54;;;;;;;25.30;23.30;;;;;;;;;;5073895;28;20189;-80
2021/01/03 12:41:21;;;;;;;26.40;24.50;;;;;;;;;;5073614;28;20191;-81
2021/01/03 12:43:50;;;;;;;28.77;26.52;;;;;;;;;;5073442;28;20207;-80
2021/01/03 12:46:24;;;;;;;26.80;24.75;;;;;;;;;;5073440;28;20257;-80
2021/01/03 12:48:51;;;;;;;28.70;26.65;;;;;;;;;;5073680;28;20203;-80
2021/01/03 12:51:18;;;;;;;27.48;25.58;;;;;;;;;;5073443;28;20718;-81
2021/01/03 12:53:45;;;;;;;27.60;25.63;;;;;;;;;;5073293;28;20630;-81
2021/01/03 12:56:12;;;;;;;27.00;25.00;;;;;;;;;;5073482;28;20203;-81
2021/01/03 12:58:39;;;;;;;30.27;27.98;;;;;;;;;;5073599;28;20527;-81
2021/01/03 13:01:07;;;;;;;30.33;28.15;;;;;;;;;;5073300;28;20641;-81
2021/01/03 13:03:34;;;;;;;29.83;27.48;;;;;;;;;;5073543;28;20196;-80
2021/01/03 13:06:02;;;;;;;27.90;25.75;;;;;;;;;;5072205;28;20234;-81
2021/01/03 13:08:28;;;;;;;28.50;26.50;;;;;;;;;;5073666;28;20197;-80
2021/01/03 13:10:55;;;;;;;29.13;26.83;;;;;;;;;;5073852;28;20203;-81
2021/01/03 13:13:22;;;;;;;25.73;23.92;;;;;;;;;;5073494;28;20550;-81
2021/01/03 13:15:49;;;;;;;26.65;24.65;;;;;;;;;;5073993;28;20196;-81
2021/01/03 13:18:17;;;;;;;27.33;25.33;;;;;;;;;;5075986;28;20192;-81
2021/01/03 13:20:44;;;;;;;28.17;25.48;;;;;;;;;;5077224;28;20194;-80
2021/01/03 13:23:11;;;;;;;27.77;25.67;;;;;;;;;;5076819;28;20242;-81
2021/01/03 13:25:38;;;;;;;28.35;25.95;;;;;;;;;;5075726;28;20199;-81
2021/01/03 13:28:06;;;;;;;28.38;26.13;;;;;;;;;;5076975;28;20204;-80
2021/01/03 13:30:32;;;;;;;28.55;26.20;;;;;;;;;;5077202;28;20200;-80
2021/01/03 13:32:59;;;;;;;28.08;26.17;;;;;;;;;;5076727;28;20192;-81
2021/01/03 13:35:27;;;;;;;27.65;25.65;;;;;;;;;;5076967;28;20540;-80
2021/01/03 13:37:54;;;;;;;28.48;26.38;;;;;;;;;;5076899;28;20197;-80
2021/01/03 13:40:21;;;;;;;26.70;24.77;;;;;;;;;;5075377;28;20202;-80
2021/01/03 13:42:48;;;;;;;28.30;26.20;;;;;;;;;;5076489;28;20210;-81
2021/01/03 13:45:15;;;;;;;27.35;25.35;;;;;;;;;;5076689;28;20261;-81
2021/01/03 13:47:42;;;;;;;28.30;26.05;;;;;;;;;;5076567;28;20220;-81
2021/01/03 13:50:10;;;;;;;29.15;26.75;;;;;;;;;;5076505;28;20283;-81
2021/01/03 13:52:37;;;;;;;28.75;26.58;;;;;;;;;;5076280;28;20198;-80
2021/01/03 13:55:05;;;;;;;29.50;27.20;;;;;;;;;;5076570;28;20238;-81
2021/01/03 13:57:32;;;;;;;29.02;26.88;;;;;;;;;;5076360;28;20203;-80
2021/01/03 13:59:59;;;;;;;28.35;26.15;;;;;;;;;;5076604;28;20192;-80
2021/01/03 14:02:25;;;;;;;29.20;27.00;;;;;;;;;;5076452;28;20187;-81
2021/01/03 14:04:53;;;;;;;29.10;26.80;;;;;;;;;;5076124;28;20188;-81
2021/01/03 14:07:19;;;;;;;28.90;26.50;;;;;;;;;;5076169;28;20803;-80
2021/01/03 14:09:47;;;;;;;28.65;26.35;;;;;;;;;;5076454;28;20200;-80
2021/01/03 14:12:14;;;;;;;28.02;26.00;;;;;;;;;;5076404;28;20195;-79
2021/01/03 14:14:41;;;;;;;29.23;26.98;;;;;;;;;;5076049;28;20188;-79
2021/01/03 14:17:10;;;;;;;28.50;26.40;;;;;;;;;;5076281;28;20280;-80
2021/01/03 14:19:39;;;;;;;28.58;26.33;;;;;;;;;;5076502;28;20191;-82
2021/01/03 14:22:06;;;;;;;30.10;27.80;;;;;;;;;;5076060;28;20267;-82
2021/01/03 14:24:33;;;;;;;29.23;26.95;;;;;;;;;;5075806;28;20233;-80
2021/01/03 14:27:00;;;;;;;29.92;27.33;;;;;;;;;;5076196;28;20550;-81
2021/01/03 14:29:28;;;;;;;30.48;27.95;;;;;;;;;;5075404;28;20189;-83